Time;durP1;ratioP1;P1;durP2;ratioP2;P2;SDS_P1;SDS_P2;PMS_P1;PMS_P2;Temp;Humidity;BMP_temperature;BMP_pressure;BME280_temperature;BME280_humidity;BME280_pressure;Samples;Min_cycle;Max_cycle;Signal;HPM_P1;HPM_P2
2022/12/29 00:00:19;;;;;;;69.72;43.45;;;;;;;;;;10111183;28;20053;-65
2022/12/29 00:05:13;;;;;;;77.93;46.28;;;;;;;;;;10110496;28;20049;-65
2022/12/29 00:10:08;;;;;;;79.65;44.33;;;;;;;;;;10110320;28;20080;-66
2022/12/29 00:35:54;;;;;;;70.80;42.08;;;;;;;;;;10099895;28;20049;-65
2022/12/29 00:45:59;;;;;;;73.65;46.25;;;;;;;;;;10110091;28;20045;-65
2022/12/29 00:50:57;;;;;;;68.93;40.92;;;;;;;;;;10109731;28;20167;-66
2022/12/29 00:55:50;;;;;;;84.43;45.13;;;;;;;;;;10109553;28;20055;-65
2022/12/29 01:00:43;;;;;;;78.25;48.08;;;;;;;;;;10109147;28;20081;-66
2022/12/29 01:05:37;;;;;;;95.22;57.88;;;;;;;;;;10108964;28;20052;-65
2022/12/29 01:10:31;;;;;;;69.57;43.72;;;;;;;;;;10108660;28;20095;-66
2022/12/29 01:15:25;;;;;;;75.38;46.15;;;;;;;;;;10109021;28;20057;-66
2022/12/29 01:20:19;;;;;;;82.32;46.53;;;;;;;;;;10107940;28;20111;-65
2022/12/29 01:25:12;;;;;;;89.18;52.00;;;;;;;;;;10094509;28;20055;-65
2022/12/29 01:30:08;;;;;;;85.53;47.65;;;;;;;;;;10104253;28;20059;-65
2022/12/29 01:35:02;;;;;;;86.57;52.15;;;;;;;;;;10108097;28;20048;-66
2022/12/29 01:39:55;;;;;;;82.28;45.38;;;;;;;;;;10089360;28;20083;-66
2022/12/29 01:44:52;;;;;;;86.55;48.40;;;;;;;;;;10107554;28;20472;-66
2022/12/29 01:49:45;;;;;;;247.52;124.22;;;;;;;;;;10107834;28;20135;-64
2022/12/29 01:54:44;;;;;;;163.50;83.82;;;;;;;;;;10106918;28;20076;-64
2022/12/29 01:59:42;;;;;;;96.45;49.92;;;;;;;;;;10106299;28;20452;-65
2022/12/29 02:04:40;;;;;;;98.88;47.60;;;;;;;;;;10089421;28;20045;-64
2022/12/29 02:09:33;;;;;;;92.57;49.33;;;;;;;;;;10107077;28;20056;-64
2022/12/29 02:14:27;;;;;;;107.80;50.78;;;;;;;;;;10093689;28;20080;-64
2022/12/29 02:19:48;;;;;;;108.47;52.35;;;;;;;;;;10106218;28;20067;-64
2022/12/29 02:24:53;;;;;;;116.05;53.38;;;;;;;;;;10104104;28;20049;-64
2022/12/29 02:29:57;;;;;;;120.75;55.17;;;;;;;;;;10091968;28;20055;-64
2022/12/29 02:35:28;;;;;;;109.63;54.60;;;;;;;;;;10098246;28;20049;-64
2022/12/29 02:40:27;;;;;;;127.50;53.33;;;;;;;;;;10102983;28;20049;-65
2022/12/29 02:45:21;;;;;;;108.72;55.38;;;;;;;;;;10087917;28;20489;-65
2022/12/29 02:50:23;;;;;;;128.18;59.58;;;;;;;;;;10082714;28;20056;-65
2022/12/29 02:55:16;;;;;;;118.20;56.30;;;;;;;;;;10076106;28;20049;-65
2022/12/29 03:00:29;;;;;;;106.55;54.25;;;;;;;;;;10090440;28;20160;-66
2022/12/29 03:05:34;;;;;;;112.55;56.50;;;;;;;;;;10103562;28;20049;-66
2022/12/29 03:10:57;;;;;;;110.13;53.30;;;;;;;;;;10105004;28;20468;-65
2022/12/29 03:16:12;;;;;;;155.55;77.85;;;;;;;;;;10073228;28;20059;-64
2022/12/29 03:26:47;;;;;;;110.57;55.03;;;;;;;;;;10087968;28;20128;-64
2022/12/29 03:31:43;;;;;;;114.38;52.50;;;;;;;;;;10075601;28;20107;-64
2022/12/29 03:37:09;;;;;;;103.43;53.35;;;;;;;;;;10089643;28;20049;-64
2022/12/29 03:42:05;;;;;;;92.10;46.30;;;;;;;;;;10086047;28;20033;-65
2022/12/29 03:47:00;;;;;;;95.95;48.38;;;;;;;;;;10089824;28;20045;-64
2022/12/29 03:51:53;;;;;;;77.18;39.25;;;;;;;;;;10086927;28;20551;-64
2022/12/29 03:56:48;;;;;;;70.72;37.70;;;;;;;;;;10095053;28;20564;-64
2022/12/29 04:01:49;;;;;;;76.13;40.13;;;;;;;;;;10093879;28;20049;-65
2022/12/29 04:06:44;;;;;;;95.88;49.88;;;;;;;;;;10075039;28;20108;-65
2022/12/29 04:11:37;;;;;;;86.55;44.67;;;;;;;;;;10086580;28;20049;-64
2022/12/29 04:16:31;;;;;;;81.65;44.75;;;;;;;;;;10095871;28;20053;-68
2022/12/29 04:21:25;;;;;;;76.97;42.58;;;;;;;;;;10115985;28;20092;-65
2022/12/29 04:26:19;;;;;;;89.43;48.75;;;;;;;;;;10098524;28;20049;-65
2022/12/29 04:31:24;;;;;;;74.75;41.55;;;;;;;;;;10095328;28;20048;-64
2022/12/29 04:36:23;;;;;;;86.13;42.75;;;;;;;;;;10110469;28;20053;-64
2022/12/29 04:41:22;;;;;;;90.13;47.25;;;;;;;;;;10104990;28;20049;-65
2022/12/29 04:46:17;;;;;;;91.05;43.38;;;;;;;;;;10096728;28;20037;-64
2022/12/29 04:51:25;;;;;;;72.53;43.15;;;;;;;;;;10092189;28;20060;-64
2022/12/29 04:56:19;;;;;;;89.93;46.30;;;;;;;;;;10091380;28;20051;-64
2022/12/29 05:01:14;;;;;;;81.80;43.50;;;;;;;;;;10091209;28;20409;-64
2022/12/29 05:06:08;;;;;;;78.22;43.72;;;;;;;;;;10092340;28;20048;-64
2022/12/29 05:11:00;;;;;;;68.00;37.80;;;;;;;;;;10095494;28;20044;-64
2022/12/29 05:15:54;;;;;;;62.22;37.55;;;;;;;;;;10096392;28;20052;-64
2022/12/29 05:20:49;;;;;;;58.50;36.00;;;;;;;;;;10091122;28;20053;-65
2022/12/29 05:25:47;;;;;;;70.03;37.72;;;;;;;;;;10106298;28;20045;-64
2022/12/29 05:31:09;;;;;;;58.92;35.38;;;;;;;;;;10105602;28;20816;-65
2022/12/29 05:36:09;;;;;;;60.65;36.38;;;;;;;;;;10096039;28;20068;-65
2022/12/29 05:41:07;;;;;;;58.78;33.00;;;;;;;;;;10093567;28;20049;-65
2022/12/29 05:46:20;;;;;;;71.80;38.88;;;;;;;;;;10106950;28;20053;-64
2022/12/29 05:51:32;;;;;;;65.57;35.83;;;;;;;;;;10107454;28;20604;-64
2022/12/29 05:56:27;;;;;;;72.65;40.35;;;;;;;;;;10098916;28;20044;-64
2022/12/29 06:01:22;;;;;;;79.68;45.28;;;;;;;;;;10079728;28;20621;-64
2022/12/29 06:06:15;;;;;;;73.47;37.05;;;;;;;;;;10087097;28;20041;-65
2022/12/29 06:11:09;;;;;;;57.08;36.30;;;;;;;;;;10076943;28;20040;-64
2022/12/29 06:16:07;;;;;;;60.10;32.65;;;;;;;;;;10067885;28;20043;-64
2022/12/29 06:21:04;;;;;;;63.40;35.72;;;;;;;;;;10062281;28;20042;-64
2022/12/29 06:25:57;;;;;;;60.50;36.05;;;;;;;;;;10082398;28;20074;-64
2022/12/29 06:30:50;;;;;;;64.88;36.47;;;;;;;;;;10091514;28;20493;-64
2022/12/29 06:35:45;;;;;;;64.72;35.40;;;;;;;;;;10077014;28;20056;-64
2022/12/29 06:40:41;;;;;;;55.75;33.40;;;;;;;;;;10100221;28;20489;-66
2022/12/29 06:45:49;;;;;;;;;;;;;;;;;;10096685;28;20049;-65
2022/12/29 06:50:42;;;;;;;66.95;40.42;;;;;;;;;;10098910;28;19920;-66
2022/12/29 06:55:36;;;;;;;66.90;40.00;;;;;;;;;;10097215;28;20064;-65
2022/12/29 07:00:31;;;;;;;74.53;43.05;;;;;;;;;;10087866;28;20045;-66
2022/12/29 07:05:27;;;;;;;71.85;41.65;;;;;;;;;;10098055;28;20078;-64
2022/12/29 07:10:22;;;;;;;83.82;48.28;;;;;;;;;;10093647;28;20049;-65
2022/12/29 07:15:16;;;;;;;85.55;44.20;;;;;;;;;;10086272;28;20049;-63
2022/12/29 07:20:10;;;;;;;83.07;47.55;;;;;;;;;;10104719;28;20128;-64
2022/12/29 07:25:04;;;;;;;83.95;46.45;;;;;;;;;;10104391;28;20041;-65
2022/12/29 07:29:58;;;;;;;84.97;45.58;;;;;;;;;;10093385;28;20128;-63
2022/12/29 07:34:52;;;;;;;91.72;49.17;;;;;;;;;;10072579;28;20406;-64
2022/12/29 07:39:46;;;;;;;85.63;48.15;;;;;;;;;;10096522;28;20099;-66
2022/12/29 07:44:40;;;;;;;85.68;47.45;;;;;;;;;;10105786;28;20057;-65
2022/12/29 07:49:41;;;;;;;83.53;47.13;;;;;;;;;;10087349;28;20091;-66
2022/12/29 07:54:35;;;;;;;82.00;47.72;;;;;;;;;;10111959;28;20056;-66
2022/12/29 07:59:30;;;;;;;87.07;49.28;;;;;;;;;;10110977;28;20056;-66
2022/12/29 08:04:23;;;;;;;82.18;47.60;;;;;;;;;;10087856;28;20082;-65
2022/12/29 08:09:15;;;;;;;88.57;47.95;;;;;;;;;;10081442;28;20041;-66
2022/12/29 08:14:16;;;;;;;77.07;46.78;;;;;;;;;;10087389;28;20631;-67
2022/12/29 08:19:11;;;;;;;81.15;47.78;;;;;;;;;;10100541;28;20053;-66
2022/12/29 08:24:06;;;;;;;78.57;47.05;;;;;;;;;;10110884;28;20140;-66
2022/12/29 08:29:00;;;;;;;80.53;47.38;;;;;;;;;;10101516;28;20037;-65
2022/12/29 08:33:54;;;;;;;79.60;47.20;;;;;;;;;;10110399;28;20098;-66
2022/12/29 08:38:48;;;;;;;72.57;48.75;;;;;;;;;;10100648;28;20049;-66
2022/12/29 08:43:47;;;;;;;74.15;46.33;;;;;;;;;;10108424;28;20081;-66
2022/12/29 08:48:40;;;;;;;75.17;47.97;;;;;;;;;;10106778;28;20052;-65
2022/12/29 08:53:34;;;;;;;81.90;46.85;;;;;;;;;;10102601;28;20088;-64
2022/12/29 08:58:27;;;;;;;79.38;47.92;;;;;;;;;;10105425;28;20098;-64
2022/12/29 09:03:22;;;;;;;77.28;47.67;;;;;;;;;;10088746;28;20053;-64
2022/12/29 09:08:35;;;;;;;73.82;47.15;;;;;;;;;;10101656;28;20041;-65
2022/12/29 09:13:30;;;;;;;75.35;46.25;;;;;;;;;;10096540;28;20059;-64
2022/12/29 09:18:23;;;;;;;75.50;47.70;;;;;;;;;;10096754;28;20060;-65
2022/12/29 09:23:17;;;;;;;74.60;48.33;;;;;;;;;;10070850;28;20041;-65
2022/12/29 09:28:11;;;;;;;69.28;44.75;;;;;;;;;;10074145;28;20119;-64
2022/12/29 09:33:04;;;;;;;68.25;46.65;;;;;;;;;;10107404;28;20053;-65
2022/12/29 09:37:58;;;;;;;72.00;45.92;;;;;;;;;;10107602;28;20045;-64
2022/12/29 09:43:12;;;;;;;71.57;46.97;;;;;;;;;;10103308;28;20049;-64
2022/12/29 09:48:14;;;;;;;74.55;46.80;;;;;;;;;;10103425;28;20059;-64
2022/12/29 09:53:38;;;;;;;73.15;46.42;;;;;;;;;;10069416;28;20136;-63
2022/12/29 09:58:37;;;;;;;66.57;44.30;;;;;;;;;;10023943;28;20091;-64
2022/12/29 10:03:53;;;;;;;63.33;42.00;;;;;;;;;;10064788;28;20052;-64
2022/12/29 10:09:23;;;;;;;64.45;39.30;;;;;;;;;;10064022;28;20068;-64
2022/12/29 10:14:22;;;;;;;60.83;37.88;;;;;;;;;;10064660;28;20072;-64
2022/12/29 10:19:24;;;;;;;;;;;;;;;;;;10035647;28;20058;-65
2022/12/29 10:24:25;;;;;;;41.42;28.75;;;;;;;;;;10054742;28;20019;-65
2022/12/29 10:29:40;;;;;;;40.72;27.83;;;;;;;;;;10053751;28;20429;-66
2022/12/29 10:34:39;;;;;;;41.75;29.75;;;;;;;;;;10052392;28;20141;-66
2022/12/29 10:39:38;;;;;;;47.03;30.33;;;;;;;;;;10058515;28;20072;-65
2022/12/29 10:44:34;;;;;;;37.03;27.52;;;;;;;;;;10060777;28;20049;-66
2022/12/29 10:49:28;;;;;;;38.88;25.80;;;;;;;;;;10065710;28;20485;-65
2022/12/29 10:54:23;;;;;;;47.22;30.33;;;;;;;;;;10084799;28;20114;-67
2022/12/29 10:59:21;;;;;;;42.45;30.80;;;;;;;;;;10073661;28;20045;-67
2022/12/29 11:04:20;;;;;;;41.40;26.90;;;;;;;;;;10064812;28;20041;-67
2022/12/29 11:09:46;;;;;;;40.22;28.45;;;;;;;;;;10084686;28;20041;-67
2022/12/29 11:14:40;;;;;;;36.33;24.95;;;;;;;;;;10060972;28;20056;-66
2022/12/29 11:19:34;;;;;;;49.10;31.30;;;;;;;;;;10078950;28;20079;-66
2022/12/29 11:24:33;;;;;;;;;;;;;;;;;;10072343;28;20203;-64
2022/12/29 11:29:30;;;;;;;45.92;32.70;;;;;;;;;;10081261;28;19975;-66
2022/12/29 11:34:25;;;;;;;43.55;29.30;;;;;;;;;;10091840;28;20052;-66
2022/12/29 11:39:45;;;;;;;37.47;28.10;;;;;;;;;;10097678;28;20064;-66
2022/12/29 11:44:45;;;;;;;39.88;26.70;;;;;;;;;;10060663;28;20091;-66
2022/12/29 11:49:38;;;;;;;41.50;27.92;;;;;;;;;;10073006;28;20049;-66
2022/12/29 11:54:34;;;;;;;43.28;29.80;;;;;;;;;;10047127;28;20096;-66
2022/12/29 11:59:29;;;;;;;42.78;28.02;;;;;;;;;;10031828;28;20125;-66
2022/12/29 12:04:29;;;;;;;43.88;28.23;;;;;;;;;;10030880;28;20058;-67
2022/12/29 12:09:27;;;;;;;38.90;27.10;;;;;;;;;;10030969;28;20602;-66
2022/12/29 12:14:28;;;;;;;35.42;26.40;;;;;;;;;;10022709;28;20065;-65
2022/12/29 12:19:46;;;;;;;41.13;27.08;;;;;;;;;;10030143;28;20049;-66
2022/12/29 12:24:53;;;;;;;36.58;25.50;;;;;;;;;;10030783;28;20054;-65
2022/12/29 12:29:56;;;;;;;40.97;27.92;;;;;;;;;;10030517;28;20054;-65
2022/12/29 12:34:50;;;;;;;42.63;28.15;;;;;;;;;;10024244;28;20120;-65
2022/12/29 12:40:13;;;;;;;40.55;26.65;;;;;;;;;;10029535;28;20058;-65
2022/12/29 12:45:40;;;;;;;41.58;26.63;;;;;;;;;;10029657;28;20090;-65
2022/12/29 12:50:49;;;;;;;37.63;26.10;;;;;;;;;;10043993;28;20057;-66
2022/12/29 12:56:11;;;;;;;43.20;28.63;;;;;;;;;;10107988;28;20120;-65
2022/12/29 13:01:39;;;;;;;32.47;23.20;;;;;;;;;;10070175;28;20040;-66
2022/12/29 13:07:04;;;;;;;38.95;25.92;;;;;;;;;;10106534;28;20152;-65
2022/12/29 13:12:11;;;;;;;35.35;26.33;;;;;;;;;;10108495;28;20418;-66
2022/12/29 13:17:11;;;;;;;38.28;24.58;;;;;;;;;;10107361;28;20056;-65
2022/12/29 13:22:06;;;;;;;;;;;;;;;;;;10108474;28;20049;-63
2022/12/29 13:27:25;;;;;;;35.97;24.15;;;;;;;;;;10079605;28;19921;-65
2022/12/29 13:32:46;;;;;;;34.35;21.42;;;;;;;;;;10101672;28;20590;-65
2022/12/29 13:38:02;;;;;;;32.70;23.10;;;;;;;;;;10103725;28;20045;-66
2022/12/29 13:42:57;;;;;;;33.30;24.10;;;;;;;;;;10106633;28;20535;-65
2022/12/29 13:48:12;;;;;;;29.50;20.55;;;;;;;;;;10058563;28;20783;-65
2022/12/29 13:53:24;;;;;;;32.05;22.50;;;;;;;;;;10078732;28;20052;-65
2022/12/29 13:58:42;;;;;;;32.65;22.27;;;;;;;;;;10107012;28;20139;-65
2022/12/29 14:03:43;;;;;;;35.53;23.88;;;;;;;;;;10105855;28;20053;-66
2022/12/29 14:08:38;;;;;;;30.63;22.45;;;;;;;;;;10091645;28;20057;-65
2022/12/29 14:13:38;;;;;;;27.35;19.75;;;;;;;;;;10105987;28;20049;-66
2022/12/29 14:18:51;;;;;;;28.20;21.25;;;;;;;;;;10089450;28;20067;-66
2022/12/29 14:23:48;;;;;;;27.13;20.02;;;;;;;;;;10103899;28;20049;-65
2022/12/29 14:28:44;;;;;;;32.70;20.70;;;;;;;;;;10104346;28;20047;-66
2022/12/29 14:33:38;;;;;;;30.35;22.20;;;;;;;;;;10099148;28;20052;-66
2022/12/29 14:38:31;;;;;;;31.95;23.55;;;;;;;;;;10105366;28;20076;-67
2022/12/29 14:43:26;;;;;;;37.22;23.02;;;;;;;;;;10104534;28;20103;-67
2022/12/29 14:48:34;;;;;;;33.10;24.17;;;;;;;;;;10112208;28;20061;-68
2022/12/29 14:54:37;;;;;;;34.42;23.30;;;;;;;;;;10093885;28;20057;-67
2022/12/29 14:59:32;;;;;;;32.72;21.63;;;;;;;;;;10023249;28;20054;-67
2022/12/29 15:04:31;;;;;;;34.97;24.10;;;;;;;;;;10102249;28;20048;-66
2022/12/29 15:09:33;;;;;;;38.72;26.15;;;;;;;;;;10104323;28;20053;-68
2022/12/29 15:14:39;;;;;;;38.33;24.48;;;;;;;;;;10092605;28;20517;-66
2022/12/29 15:19:33;;;;;;;36.45;26.45;;;;;;;;;;10104714;28;20057;-66
2022/12/29 15:24:27;;;;;;;49.70;27.95;;;;;;;;;;10104234;28;20049;-67
2022/12/29 15:29:41;;;;;;;39.95;28.40;;;;;;;;;;10103669;28;20068;-67
2022/12/29 15:34:34;;;;;;;44.92;29.05;;;;;;;;;;10104157;28;20131;-66
2022/12/29 15:39:30;;;;;;;51.08;30.35;;;;;;;;;;10103034;28;20126;-67
2022/12/29 15:44:27;;;;;;;60.90;32.53;;;;;;;;;;10103758;28;20076;-66
2022/12/29 15:49:23;;;;;;;44.65;29.70;;;;;;;;;;10102119;28;20136;-67
2022/12/29 15:54:25;;;;;;;47.95;29.70;;;;;;;;;;10103430;28;20061;-67
2022/12/29 15:59:24;;;;;;;44.60;29.05;;;;;;;;;;10104238;28;20131;-67
2022/12/29 16:04:17;;;;;;;45.40;29.48;;;;;;;;;;10103873;28;20123;-67
2022/12/29 16:09:17;;;;;;;48.15;31.48;;;;;;;;;;10109559;28;20045;-67
2022/12/29 16:14:16;;;;;;;61.97;46.22;;;;;;;;;;10110506;28;20053;-67
2022/12/29 16:19:24;;;;;;;50.65;33.92;;;;;;;;;;10111097;28;20045;-67
2022/12/29 16:24:20;;;;;;;55.95;34.08;;;;;;;;;;10109855;28;20128;-67
2022/12/29 16:29:32;;;;;;;53.53;34.15;;;;;;;;;;10112322;28;20421;-67
2022/12/29 16:34:32;;;;;;;49.97;32.08;;;;;;;;;;10101565;28;20129;-67
2022/12/29 16:39:36;;;;;;;53.22;32.55;;;;;;;;;;10109619;28;20111;-66
2022/12/29 16:44:31;;;;;;;57.67;35.63;;;;;;;;;;10102361;28;20072;-66
2022/12/29 16:49:26;;;;;;;49.30;29.73;;;;;;;;;;10109572;28;20440;-67
2022/12/29 16:54:30;;;;;;;45.08;31.42;;;;;;;;;;10109525;28;20057;-67
2022/12/29 16:59:30;;;;;;;43.75;31.35;;;;;;;;;;10109487;28;20525;-67
2022/12/29 17:04:24;;;;;;;50.70;30.58;;;;;;;;;;10109253;28;20057;-65
2022/12/29 17:09:20;;;;;;;53.53;33.90;;;;;;;;;;10108669;28;20118;-67
2022/12/29 17:14:23;;;;;;;54.17;34.78;;;;;;;;;;10108710;28;20049;-67
2022/12/29 17:19:26;;;;;;;54.13;33.45;;;;;;;;;;10090971;28;20052;-66
2022/12/29 17:24:20;;;;;;;52.40;32.90;;;;;;;;;;10107019;28;20144;-66
2022/12/29 17:29:29;;;;;;;49.47;32.92;;;;;;;;;;10108337;28;20382;-66
2022/12/29 17:34:22;;;;;;;49.03;33.70;;;;;;;;;;10107065;28;20053;-66
2022/12/29 17:39:16;;;;;;;53.30;34.78;;;;;;;;;;10113755;28;20049;-66
2022/12/29 17:44:17;;;;;;;53.25;34.00;;;;;;;;;;10107508;28;20118;-65
2022/12/29 17:49:16;;;;;;;53.92;32.53;;;;;;;;;;10082366;28;20124;-66
2022/12/29 17:54:27;;;;;;;54.50;35.83;;;;;;;;;;10095372;28;20061;-70
2022/12/29 17:59:21;;;;;;;59.08;35.65;;;;;;;;;;10093525;28;20061;-69
2022/12/29 18:04:17;;;;;;;57.15;35.55;;;;;;;;;;10077301;28;20470;-68
2022/12/29 18:09:11;;;;;;;49.03;35.80;;;;;;;;;;10081639;28;20129;-67
2022/12/29 18:14:12;;;;;;;62.20;37.13;;;;;;;;;;10094662;28;20049;-68
2022/12/29 18:19:06;;;;;;;62.10;39.15;;;;;;;;;;10106235;28;20041;-68
2022/12/29 18:23:59;;;;;;;73.68;45.13;;;;;;;;;;10105613;28;20060;-68
2022/12/29 18:28:52;;;;;;;56.45;40.72;;;;;;;;;;10082321;28;20148;-68
2022/12/29 18:33:48;;;;;;;57.13;36.15;;;;;;;;;;10105821;28;20060;-68
2022/12/29 18:38:41;;;;;;;59.70;40.95;;;;;;;;;;10105568;28;20504;-68
2022/12/29 18:43:35;;;;;;;49.30;35.17;;;;;;;;;;10105742;28;20072;-68
2022/12/29 18:48:29;;;;;;;59.70;39.45;;;;;;;;;;10105223;28;20061;-68
2022/12/29 18:53:23;;;;;;;57.75;33.70;;;;;;;;;;10105080;28;20110;-68
2022/12/29 18:58:17;;;;;;;52.90;33.80;;;;;;;;;;10105432;28;20124;-67
2022/12/29 19:03:13;;;;;;;55.45;32.13;;;;;;;;;;10104598;28;20041;-68
2022/12/29 19:08:07;;;;;;;52.75;33.80;;;;;;;;;;10105130;28;20052;-68
2022/12/29 19:13:01;;;;;;;61.80;41.58;;;;;;;;;;10093871;28;20128;-68
2022/12/29 19:17:57;;;;;;;63.85;37.92;;;;;;;;;;10081267;28;20129;-65
2022/12/29 19:23:15;;;;;;;53.08;35.67;;;;;;;;;;10079831;28;20060;-70
2022/12/29 19:28:32;;;;;;;;;;;;;;;;;;10105558;28;20045;-65
2022/12/29 19:33:25;;;;;;;58.15;34.47;;;;;;;;;;10097418;28;19929;-64
2022/12/29 19:38:20;;;;;;;53.70;32.58;;;;;;;;;;10095977;28;20053;-66
2022/12/29 19:43:14;;;;;;;52.03;33.13;;;;;;;;;;10098047;28;20045;-67
2022/12/29 19:48:11;;;;;;;49.92;32.45;;;;;;;;;;10084161;28;20085;-69
2022/12/29 19:53:04;;;;;;;54.58;36.67;;;;;;;;;;10078321;28;20057;-68
2022/12/29 19:57:57;;;;;;;47.65;31.25;;;;;;;;;;10071872;28;20045;-67
2022/12/29 20:02:51;;;;;;;57.92;34.03;;;;;;;;;;10103282;28;20061;-69
2022/12/29 20:07:45;;;;;;;53.03;35.88;;;;;;;;;;10089142;28;20053;-69
2022/12/29 20:12:38;;;;;;;56.75;37.17;;;;;;;;;;10084588;28;20076;-70
2022/12/29 20:17:32;;;;;;;50.92;35.80;;;;;;;;;;10086311;28;20073;-72
2022/12/29 20:22:45;;;;;;;54.45;36.25;;;;;;;;;;10086693;28;20045;-68
2022/12/29 20:27:39;;;;;;;55.40;36.97;;;;;;;;;;10091713;28;20049;-68
2022/12/29 20:32:34;;;;;;;53.85;37.45;;;;;;;;;;10094611;28;20155;-69
2022/12/29 20:37:28;;;;;;;51.10;34.80;;;;;;;;;;10089085;28;20403;-70
2022/12/29 20:42:22;;;;;;;46.65;32.53;;;;;;;;;;10097856;28;20045;-71
2022/12/29 20:47:15;;;;;;;55.28;35.50;;;;;;;;;;10091422;28;20049;-69
2022/12/29 20:52:10;;;;;;;51.88;34.45;;;;;;;;;;10090399;28;20064;-68
2022/12/29 20:57:03;;;;;;;51.63;35.28;;;;;;;;;;10085855;28;20080;-68
2022/12/29 21:01:58;;;;;;;54.95;34.97;;;;;;;;;;10080116;28;20425;-69
2022/12/29 21:06:51;;;;;;;56.40;34.47;;;;;;;;;;10085236;28;20053;-69
2022/12/29 21:11:46;;;;;;;54.97;35.22;;;;;;;;;;10087692;28;20056;-68
2022/12/29 21:16:40;;;;;;;49.53;36.13;;;;;;;;;;10087028;28;20098;-68
2022/12/29 21:21:34;;;;;;;56.55;35.03;;;;;;;;;;10088632;28;20425;-70
2022/12/29 21:26:28;;;;;;;56.05;34.22;;;;;;;;;;10096323;28;20033;-71
2022/12/29 21:31:32;;;;;;;57.00;34.88;;;;;;;;;;10089044;28;20510;-70
2022/12/29 21:36:26;;;;;;;57.30;33.65;;;;;;;;;;10087565;28;20053;-68
2022/12/29 21:41:21;;;;;;;58.22;34.90;;;;;;;;;;10098200;28;20051;-68
2022/12/29 21:46:14;;;;;;;53.72;30.83;;;;;;;;;;10099196;28;20144;-68
2022/12/29 21:56:23;;;;;;;60.85;34.75;;;;;;;;;;10075718;28;20052;-69
2022/12/29 22:16:57;;;;;;;67.15;34.03;;;;;;;;;;10100084;28;20048;-69
2022/12/29 22:21:51;;;;;;;60.13;34.50;;;;;;;;;;10098611;28;20094;-68
2022/12/29 22:26:46;;;;;;;62.05;33.17;;;;;;;;;;10098252;28;20057;-69
2022/12/29 22:31:40;;;;;;;55.25;33.70;;;;;;;;;;10096394;28;20048;-68
2022/12/29 22:36:34;;;;;;;59.13;33.67;;;;;;;;;;10097610;28;20409;-68
2022/12/29 22:41:28;;;;;;;65.72;38.80;;;;;;;;;;10098683;28;20057;-69
2022/12/29 22:46:22;;;;;;;53.88;30.33;;;;;;;;;;10094249;28;20124;-67
2022/12/29 22:51:17;;;;;;;63.67;37.80;;;;;;;;;;10091732;28;20053;-68
2022/12/29 22:56:12;;;;;;;59.83;34.03;;;;;;;;;;10083215;28;20073;-67
2022/12/29 23:01:05;;;;;;;57.28;31.90;;;;;;;;;;10073898;28;20038;-66
2022/12/29 23:06:01;;;;;;;52.15;28.98;;;;;;;;;;10074758;28;20133;-66
2022/12/29 23:10:54;;;;;;;57.47;32.03;;;;;;;;;;10090297;28;20048;-66
2022/12/29 23:15:48;;;;;;;53.90;29.95;;;;;;;;;;10086886;28;20104;-68
2022/12/29 23:20:42;;;;;;;53.63;28.73;;;;;;;;;;10091032;28;21374;-69
2022/12/29 23:25:37;;;;;;;56.47;32.38;;;;;;;;;;10087142;28;20099;-70
2022/12/29 23:30:31;;;;;;;65.90;33.78;;;;;;;;;;10096933;28;20080;-69
2022/12/29 23:35:24;;;;;;;60.47;32.55;;;;;;;;;;10099797;28;20041;-68
2022/12/29 23:40:17;;;;;;;57.08;30.38;;;;;;;;;;10095432;28;20050;-68
2022/12/29 23:45:12;;;;;;;55.03;31.23;;;;;;;;;;10104260;28;20049;-68
2022/12/29 23:50:08;;;;;;;67.45;35.78;;;;;;;;;;10102550;28;20107;-68
2022/12/29 23:55:01;;;;;;;65.80;35.85;;;;;;;;;;10101195;28;20052;-68
2022/12/29 23:59:55;;;;;;;63.85;33.78;;;;;;;;;;10100431;28;20136;-68
